sensor_id;sensor_type;location;lat;lon;timestamp;pressure;altitude;pressure_sealevel;temperature;humidity
75013;BME280;63567;49.956;20.130;2023-09-19T00:01:12;96472.69;;;20.38;67.59
75013;BME280;63567;49.956;20.130;2023-09-19T00:03:37;96471.09;;;20.37;67.38
75013;BME280;63567;49.956;20.130;2023-09-19T00:06:04;96469.75;;;20.39;67.53
75013;BME280;63567;49.956;20.130;2023-09-19T00:08:33;96466.81;;;20.41;67.57
75013;BME280;63567;49.956;20.130;2023-09-19T00:10:58;96459.34;;;20.43;67.72
75013;BME280;63567;49.956;20.130;2023-09-19T00:13:33;96463.34;;;20.45;67.40
75013;BME280;63567;49.956;20.130;2023-09-19T00:16:01;96470.03;;;20.48;67.35
75013;BME280;63567;49.956;20.130;2023-09-19T00:18:26;96459.06;;;20.49;67.46
75013;BME280;63567;49.956;20.130;2023-09-19T00:20:58;96464.41;;;20.49;67.21
75013;BME280;63567;49.956;20.130;2023-09-19T00:23:23;96461.47;;;20.51;67.38
75013;BME280;63567;49.956;20.130;2023-09-19T00:25:49;96459.63;;;20.51;68.08
75013;BME280;63567;49.956;20.130;2023-09-19T00:28:15;96453.97;;;20.53;69.36
75013;BME280;63567;49.956;20.130;2023-09-19T00:30:45;96458.28;;;20.54;70.08
75013;BME280;63567;49.956;20.130;2023-09-19T00:33:15;96448.09;;;20.51;70.77
75013;BME280;63567;49.956;20.130;2023-09-19T00:35:51;96457.19;;;20.55;71.09
75013;BME280;63567;49.956;20.130;2023-09-19T00:38:18;96462.53;;;20.55;71.69
75013;BME280;63567;49.956;20.130;2023-09-19T00:40:49;96470.56;;;20.55;72.33
75013;BME280;63567;49.956;20.130;2023-09-19T00:43:16;96475.91;;;20.55;72.24
75013;BME280;63567;49.956;20.130;2023-09-19T00:45:43;96471.66;;;20.54;72.72
75013;BME280;63567;49.956;20.130;2023-09-19T00:48:09;96470.81;;;20.53;73.22
75013;BME280;63567;49.956;20.130;2023-09-19T00:50:35;96473.00;;;20.51;73.09
75013;BME280;63567;49.956;20.130;2023-09-19T00:53:02;96467.91;;;20.50;73.35
75013;BME280;63567;49.956;20.130;2023-09-19T00:55:33;96463.06;;;20.47;73.56
75013;BME280;63567;49.956;20.130;2023-09-19T00:57:59;96457.72;;;20.47;73.91
75013;BME280;63567;49.956;20.130;2023-09-19T01:00:25;96459.84;;;20.45;74.38
75013;BME280;63567;49.956;20.130;2023-09-19T01:02:50;96450.75;;;20.41;74.19
75013;BME280;63567;49.956;20.130;2023-09-19T01:05:16;96449.16;;;20.40;74.36
75013;BME280;63567;49.956;20.130;2023-09-19T01:07:41;96437.38;;;20.36;74.74
75013;BME280;63567;49.956;20.130;2023-09-19T01:10:10;96442.16;;;20.34;74.08
75013;BME280;63567;49.956;20.130;2023-09-19T01:12:47;96436.81;;;20.28;74.23
75013;BME280;63567;49.956;20.130;2023-09-19T01:15:30;96445.66;;;20.24;74.25
75013;BME280;63567;49.956;20.130;2023-09-19T01:18:33;96445.38;;;20.20;74.04
75013;BME280;63567;49.956;20.130;2023-09-19T01:29:49;96430.63;;;20.07;75.18
75013;BME280;63567;49.956;20.130;2023-09-19T01:32:18;96431.69;;;20.06;75.25
75013;BME280;63567;49.956;20.130;2023-09-19T01:34:51;96418.59;;;20.05;75.50
75013;BME280;63567;49.956;20.130;2023-09-19T01:37:18;96417.78;;;20.04;75.90
75013;BME280;63567;49.956;20.130;2023-09-19T01:39:52;96408.16;;;20.03;75.55
75013;BME280;63567;49.956;20.130;2023-09-19T01:45:02;96419.38;;;20.00;76.27
75013;BME280;63567;49.956;20.130;2023-09-19T01:47:34;96414.28;;;19.99;76.18
75013;BME280;63567;49.956;20.130;2023-09-19T01:52:48;96414.53;;;19.97;77.16
75013;BME280;63567;49.956;20.130;2023-09-19T01:55:15;96410.53;;;19.95;77.25
75013;BME280;63567;49.956;20.130;2023-09-19T01:57:54;96410.53;;;19.95;77.70
75013;BME280;63567;49.956;20.130;2023-09-19T02:00:24;96411.88;;;19.92;77.92
75013;BME280;63567;49.956;20.130;2023-09-19T02:02:51;96409.19;;;19.92;78.07
75013;BME280;63567;49.956;20.130;2023-09-19T02:05:24;96394.47;;;19.89;78.31
75013;BME280;63567;49.956;20.130;2023-09-19T02:07:50;96395.53;;;19.88;78.66
75013;BME280;63567;49.956;20.130;2023-09-19T02:10:15;96394.75;;;19.88;78.68
75013;BME280;63567;49.956;20.130;2023-09-19T02:12:42;96397.41;;;19.88;78.51
75013;BME280;63567;49.956;20.130;2023-09-19T02:15:08;96391.53;;;19.86;78.37
75013;BME280;63567;49.956;20.130;2023-09-19T02:17:34;96396.06;;;19.85;78.43
75013;BME280;63567;49.956;20.130;2023-09-19T02:19:59;96387.78;;;19.82;78.14
75013;BME280;63567;49.956;20.130;2023-09-19T02:22:25;96376.53;;;19.80;78.54
75013;BME280;63567;49.956;20.130;2023-09-19T02:24:51;96389.34;;;19.78;78.08
75013;BME280;63567;49.956;20.130;2023-09-19T02:27:17;96384.28;;;19.76;78.30
75013;BME280;63567;49.956;20.130;2023-09-19T02:29:43;96381.34;;;19.73;78.42
75013;BME280;63567;49.956;20.130;2023-09-19T02:32:08;96379.41;;;19.68;78.24
75013;BME280;63567;49.956;20.130;2023-09-19T02:34:34;96382.63;;;19.65;78.02
75013;BME280;63567;49.956;20.130;2023-09-19T02:37:02;96375.91;;;19.62;78.88
75013;BME280;63567;49.956;20.130;2023-09-19T02:39:30;96372.44;;;19.62;79.21
75013;BME280;63567;49.956;20.130;2023-09-19T02:41:55;96374.56;;;19.60;79.24
75013;BME280;63567;49.956;20.130;2023-09-19T02:44:20;96366.56;;;19.60;79.41
75013;BME280;63567;49.956;20.130;2023-09-19T02:46:45;96363.34;;;19.58;79.58
75013;BME280;63567;49.956;20.130;2023-09-19T02:49:11;96359.09;;;19.57;79.96
75013;BME280;63567;49.956;20.130;2023-09-19T02:51:38;96352.13;;;19.56;80.14
75013;BME280;63567;49.956;20.130;2023-09-19T02:54:03;96341.44;;;19.56;80.34
75013;BME280;63567;49.956;20.130;2023-09-19T02:56:29;96338.75;;;19.56;80.31
75013;BME280;63567;49.956;20.130;2023-09-19T02:58:56;96338.75;;;19.56;80.47
75013;BME280;63567;49.956;20.130;2023-09-19T03:01:21;96334.25;;;19.56;80.40
75013;BME280;63567;49.956;20.130;2023-09-19T03:03:47;96336.09;;;19.56;80.25
75013;BME280;63567;49.956;20.130;2023-09-19T03:06:12;96339.84;;;19.55;80.12
75013;BME280;63567;49.956;20.130;2023-09-19T03:08:41;96334.50;;;19.55;79.98
75013;BME280;63567;49.956;20.130;2023-09-19T03:11:07;96320.34;;;19.54;80.12
75013;BME280;63567;49.956;20.130;2023-09-19T03:13:34;96317.38;;;19.56;80.39
75013;BME280;63567;49.956;20.130;2023-09-19T03:16:03;96309.66;;;19.54;79.85
75013;BME280;63567;49.956;20.130;2023-09-19T03:18:31;96310.19;;;19.56;79.87
75013;BME280;63567;49.956;20.130;2023-09-19T03:20:57;96309.91;;;19.58;79.73
75013;BME280;63567;49.956;20.130;2023-09-19T03:23:25;96308.31;;;19.57;79.81
75013;BME280;63567;49.956;20.130;2023-09-19T03:25:51;96308.06;;;19.58;79.71
75013;BME280;63567;49.956;20.130;2023-09-19T03:28:17;96300.28;;;19.57;79.53
75013;BME280;63567;49.956;20.130;2023-09-19T03:30:43;96305.09;;;19.60;79.44
75013;BME280;63567;49.956;20.130;2023-09-19T03:33:08;96305.09;;;19.60;79.95
75013;BME280;63567;49.956;20.130;2023-09-19T03:35:35;96298.41;;;19.62;79.41
75013;BME280;63567;49.956;20.130;2023-09-19T03:38:02;96287.72;;;19.62;79.75
75013;BME280;63567;49.956;20.130;2023-09-19T03:40:28;96285.06;;;19.62;79.58
75013;BME280;63567;49.956;20.130;2023-09-19T03:42:53;96277.31;;;19.61;79.76
75013;BME280;63567;49.956;20.130;2023-09-19T03:45:18;96285.88;;;19.63;79.64
75013;BME280;63567;49.956;20.130;2023-09-19T03:47:44;96277.88;;;19.63;79.87
75013;BME280;63567;49.956;20.130;2023-09-19T03:50:12;96277.88;;;19.63;79.78
75013;BME280;63567;49.956;20.130;2023-09-19T03:52:40;96282.13;;;19.64;79.98
75013;BME280;63567;49.956;20.130;2023-09-19T03:55:05;96275.75;;;19.65;80.26
75013;BME280;63567;49.956;20.130;2023-09-19T03:57:31;96278.13;;;19.66;80.31
75013;BME280;63567;49.956;20.130;2023-09-19T03:59:56;96278.66;;;19.68;80.38
75013;BME280;63567;49.956;20.130;2023-09-19T04:02:22;96279.75;;;19.67;80.62
75013;BME280;63567;49.956;20.130;2023-09-19T04:04:51;96277.88;;;19.68;80.44
75013;BME280;63567;49.956;20.130;2023-09-19T04:07:17;96272.53;;;19.63;80.96
75013;BME280;63567;49.956;20.130;2023-09-19T04:09:42;96269.84;;;19.63;81.03
75013;BME280;63567;49.956;20.130;2023-09-19T04:12:08;96261.84;;;19.63;81.15
75013;BME280;63567;49.956;20.130;2023-09-19T04:14:36;96272.78;;;19.66;80.93
75013;BME280;63567;49.956;20.130;2023-09-19T04:17:01;96270.94;;;19.67;80.72
75013;BME280;63567;49.956;20.130;2023-09-19T04:19:27;96272.53;;;19.68;80.85
75013;BME280;63567;49.956;20.130;2023-09-19T04:21:52;96276.78;;;19.69;81.24
75013;BME280;63567;49.956;20.130;2023-09-19T04:24:17;96276.78;;;19.69;81.15
75013;BME280;63567;49.956;20.130;2023-09-19T04:26:44;96270.41;;;19.70;81.07
75013;BME280;63567;49.956;20.130;2023-09-19T04:29:10;96269.34;;;19.71;81.22
75013;BME280;63567;49.956;20.130;2023-09-19T04:31:38;96273.63;;;19.72;81.47
75013;BME280;63567;49.956;20.130;2023-09-19T04:34:06;96272.84;;;19.72;81.98
75013;BME280;63567;49.956;20.130;2023-09-19T04:36:33;96266.66;;;19.71;81.92
75013;BME280;63567;49.956;20.130;2023-09-19T04:39:00;96268.28;;;19.72;82.15
75013;BME280;63567;49.956;20.130;2023-09-19T04:41:25;96265.63;;;19.72;82.29
75013;BME280;63567;49.956;20.130;2023-09-19T04:43:50;96268.28;;;19.72;82.06
75013;BME280;63567;49.956;20.130;2023-09-19T04:46:16;96269.88;;;19.73;82.67
75013;BME280;63567;49.956;20.130;2023-09-19T04:48:43;96266.41;;;19.73;82.09
75013;BME280;63567;49.956;20.130;2023-09-19T04:51:08;96267.19;;;19.73;82.22
75013;BME280;63567;49.956;20.130;2023-09-19T04:53:33;96269.88;;;19.73;82.43
75013;BME280;63567;49.956;20.130;2023-09-19T04:55:58;96265.34;;;19.74;82.49
75013;BME280;63567;49.956;20.130;2023-09-19T04:58:24;96274.16;;;19.74;82.80
75013;BME280;63567;49.956;20.130;2023-09-19T05:00:49;96275.75;;;19.75;82.66
75013;BME280;63567;49.956;20.130;2023-09-19T05:03:16;96273.09;;;19.75;82.51
75013;BME280;63567;49.956;20.130;2023-09-19T05:05:42;96277.38;;;19.76;82.45
75013;BME280;63567;49.956;20.130;2023-09-19T05:08:08;96280.06;;;19.76;82.36
75013;BME280;63567;49.956;20.130;2023-09-19T05:10:34;96276.59;;;19.76;82.54
75013;BME280;63567;49.956;20.130;2023-09-19T05:13:03;96280.56;;;19.73;82.57
75013;BME280;63567;49.956;20.130;2023-09-19T05:15:30;96280.56;;;19.73;82.69
75013;BME280;63567;49.956;20.130;2023-09-19T05:17:56;96274.44;;;19.73;82.35
75013;BME280;63567;49.956;20.130;2023-09-19T05:20:21;96264.81;;;19.72;82.71
75013;BME280;63567;49.956;20.130;2023-09-19T05:23:01;96274.69;;;19.71;82.59
75013;BME280;63567;49.956;20.130;2023-09-19T05:25:36;96273.88;;;19.70;82.84
75013;BME280;63567;49.956;20.130;2023-09-19T05:28:02;96267.19;;;19.63;82.89
75013;BME280;63567;49.956;20.130;2023-09-19T05:30:30;96271.69;;;19.62;83.56
75013;BME280;63567;49.956;20.130;2023-09-19T05:32:55;96274.91;;;19.64;83.45
75013;BME280;63567;49.956;20.130;2023-09-19T05:35:24;96278.13;;;19.66;83.73
75013;BME280;63567;49.956;20.130;2023-09-19T05:37:50;96289.34;;;19.68;83.64
75013;BME280;63567;49.956;20.130;2023-09-19T05:40:18;96293.91;;;19.68;83.88
75013;BME280;63567;49.956;20.130;2023-09-19T05:42:43;96291.47;;;19.66;83.82
75013;BME280;63567;49.956;20.130;2023-09-19T05:45:09;96301.38;;;19.66;84.13
75013;BME280;63567;49.956;20.130;2023-09-19T05:47:37;96300.28;;;19.62;84.53
75013;BME280;63567;49.956;20.130;2023-09-19T05:50:03;96293.06;;;19.57;84.88
75013;BME280;63567;49.956;20.130;2023-09-19T05:52:30;96294.16;;;19.56;84.58
75013;BME280;63567;49.956;20.130;2023-09-19T05:54:55;96300.56;;;19.55;84.36
75013;BME280;63567;49.956;20.130;2023-09-19T05:57:21;96302.16;;;19.56;83.76
75013;BME280;63567;49.956;20.130;2023-09-19T05:59:47;96301.34;;;19.56;83.52
75013;BME280;63567;49.956;20.130;2023-09-19T06:02:14;96302.97;;;19.57;83.79
75013;BME280;63567;49.956;20.130;2023-09-19T06:04:40;96307.53;;;19.56;84.08
75013;BME280;63567;49.956;20.130;2023-09-19T06:07:06;96307.78;;;19.60;84.34
75013;BME280;63567;49.956;20.130;2023-09-19T06:09:31;96309.41;;;19.61;84.58
75013;BME280;63567;49.956;20.130;2023-09-19T06:11:57;96320.63;;;19.63;84.87
75013;BME280;63567;49.956;20.130;2023-09-19T06:14:23;96320.63;;;19.63;85.01
75013;BME280;63567;49.956;20.130;2023-09-19T06:16:49;96317.66;;;19.64;84.92
75013;BME280;63567;49.956;20.130;2023-09-19T06:19:15;96328.34;;;19.64;84.57
75013;BME280;63567;49.956;20.130;2023-09-19T06:21:40;96330.22;;;19.64;84.58
75013;BME280;63567;49.956;20.130;2023-09-19T06:24:05;96336.13;;;19.66;85.06
75013;BME280;63567;49.956;20.130;2023-09-19T06:26:31;96324.38;;;19.67;85.47
75013;BME280;63567;49.956;20.130;2023-09-19T06:28:57;96336.13;;;19.66;85.78
75013;BME280;63567;49.956;20.130;2023-09-19T06:31:22;96336.13;;;19.66;85.57
75013;BME280;63567;49.956;20.130;2023-09-19T06:33:51;96348.41;;;19.62;85.48
75013;BME280;63567;49.956;20.130;2023-09-19T06:36:16;96344.94;;;19.61;85.61
75013;BME280;63567;49.956;20.130;2023-09-19T06:38:42;96354.00;;;19.60;85.51
75013;BME280;63567;49.956;20.130;2023-09-19T06:41:08;96349.97;;;19.58;85.49
75013;BME280;63567;49.956;20.130;2023-09-19T06:43:34;96358.81;;;19.58;85.18
75013;BME280;63567;49.956;20.130;2023-09-19T06:46:00;96364.16;;;19.58;85.18
75013;BME280;63567;49.956;20.130;2023-09-19T06:48:26;96361.50;;;19.58;85.37
75013;BME280;63567;49.956;20.130;2023-09-19T06:50:58;96361.50;;;19.58;85.46
75013;BME280;63567;49.956;20.130;2023-09-19T06:53:24;96364.44;;;19.57;85.43
75013;BME280;63567;49.956;20.130;2023-09-19T06:55:50;96361.75;;;19.57;85.94
75013;BME280;63567;49.956;20.130;2023-09-19T06:58:16;96363.63;;;19.56;85.89
75013;BME280;63567;49.956;20.130;2023-09-19T07:00:42;96364.69;;;19.55;85.91
75013;BME280;63567;49.956;20.130;2023-09-19T07:03:08;96363.88;;;19.55;86.01
75013;BME280;63567;49.956;20.130;2023-09-19T07:05:37;96366.81;;;19.53;86.49
75013;BME280;63567;49.956;20.130;2023-09-19T07:08:05;96357.44;;;19.50;86.95
75013;BME280;63567;49.956;20.130;2023-09-19T07:10:31;96358.53;;;19.55;87.26
75013;BME280;63567;49.956;20.130;2023-09-19T07:13:01;96360.41;;;19.54;87.44
75013;BME280;63567;49.956;20.130;2023-09-19T07:15:27;96359.59;;;19.54;87.44
75013;BME280;63567;49.956;20.130;2023-09-19T07:17:53;96371.09;;;19.54;87.21
75013;BME280;63567;49.956;20.130;2023-09-19T07:20:19;96358.00;;;19.53;86.99
75013;BME280;63567;49.956;20.130;2023-09-19T07:22:45;96367.59;;;19.54;87.36
75013;BME280;63567;49.956;20.130;2023-09-19T07:25:10;96369.22;;;19.55;87.18
75013;BME280;63567;49.956;20.130;2023-09-19T07:27:35;96374.81;;;19.53;87.54
75013;BME280;63567;49.956;20.130;2023-09-19T07:30:00;96370.03;;;19.55;88.02
75013;BME280;63567;49.956;20.130;2023-09-19T07:32:26;96373.50;;;19.56;87.88
75013;BME280;63567;49.956;20.130;2023-09-19T07:34:51;96375.91;;;19.57;88.05
75013;BME280;63567;49.956;20.130;2023-09-19T07:37:16;96377.78;;;19.57;88.24
75013;BME280;63567;49.956;20.130;2023-09-19T07:39:42;96382.88;;;19.58;88.80
75013;BME280;63567;49.956;20.130;2023-09-19T07:42:08;96376.44;;;19.59;88.99
75013;BME280;63567;49.956;20.130;2023-09-19T07:44:35;96378.03;;;19.60;89.17
75013;BME280;63567;49.956;20.130;2023-09-19T07:47:01;96379.41;;;19.63;89.26
75013;BME280;63567;49.956;20.130;2023-09-19T07:49:28;96380.47;;;19.62;89.72
75013;BME280;63567;49.956;20.130;2023-09-19T07:51:53;96380.22;;;19.63;89.99
75013;BME280;63567;49.956;20.130;2023-09-19T07:54:19;96379.97;;;19.65;90.05
75013;BME280;63567;49.956;20.130;2023-09-19T07:56:45;96378.34;;;19.64;90.23
75013;BME280;63567;49.956;20.130;2023-09-19T07:59:11;96385.84;;;19.67;90.47
75013;BME280;63567;49.956;20.130;2023-09-19T08:01:36;96393.31;;;19.65;90.80
75013;BME280;63567;49.956;20.130;2023-09-19T08:04:02;96390.91;;;19.68;90.98
75013;BME280;63567;49.956;20.130;2023-09-19T08:06:27;96391.19;;;19.67;90.88
75013;BME280;63567;49.956;20.130;2023-09-19T08:08:55;96393.88;;;19.67;90.78
75013;BME280;63567;49.956;20.130;2023-09-19T08:11:20;96401.88;;;19.67;90.95
75013;BME280;63567;49.956;20.130;2023-09-19T08:13:48;96394.91;;;19.66;90.57
75013;BME280;63567;49.956;20.130;2023-09-19T08:16:14;96396.25;;;19.63;90.73
75013;BME280;63567;49.956;20.130;2023-09-19T08:18:40;96389.03;;;19.59;90.65
75013;BME280;63567;49.956;20.130;2023-09-19T08:21:06;96396.50;;;19.57;90.44
75013;BME280;63567;49.956;20.130;2023-09-19T08:23:38;96394.31;;;19.54;90.28
75013;BME280;63567;49.956;20.130;2023-09-19T08:26:04;96395.38;;;19.47;89.96
75013;BME280;63567;49.956;20.130;2023-09-19T08:28:33;96400.44;;;19.44;90.02
75013;BME280;63567;49.956;20.130;2023-09-19T08:31:05;96402.28;;;19.38;89.92
75013;BME280;63567;49.956;20.130;2023-09-19T08:33:32;96389.44;;;19.30;89.88
75013;BME280;63567;49.956;20.130;2023-09-19T08:35:58;96407.53;;;19.23;89.67
75013;BME280;63567;49.956;20.130;2023-09-19T08:38:23;96418.69;;;19.15;90.14
75013;BME280;63567;49.956;20.130;2023-09-19T08:40:49;96422.16;;;19.10;90.53
75013;BME280;63567;49.956;20.130;2023-09-19T08:43:14;96408.22;;;19.03;90.55
75013;BME280;63567;49.956;20.130;2023-09-19T08:45:40;96417.78;;;18.94;90.67
75013;BME280;63567;49.956;20.130;2023-09-19T08:50:31;96418.00;;;18.87;91.35
75013;BME280;63567;49.956;20.130;2023-09-19T08:53:00;96424.91;;;18.83;91.55
75013;BME280;63567;49.956;20.130;2023-09-19T08:55:29;96432.38;;;18.81;91.74
75013;BME280;63567;49.956;20.130;2023-09-19T08:58:00;96439.25;;;18.77;92.05
75013;BME280;63567;49.956;20.130;2023-09-19T09:00:27;96443.72;;;18.71;92.33
75013;BME280;63567;49.956;20.130;2023-09-19T09:02:54;96451.47;;;18.67;92.86
75013;BME280;63567;49.956;20.130;2023-09-19T09:05:20;96453.56;;;18.65;93.06
75013;BME280;63567;49.956;20.130;2023-09-19T09:07:48;96459.47;;;18.67;93.13
75013;BME280;63567;49.956;20.130;2023-09-19T09:10:15;96458.91;;;18.65;93.13
75013;BME280;63567;49.956;20.130;2023-09-19T09:12:41;96461.03;;;18.63;93.54
75013;BME280;63567;49.956;20.130;2023-09-19T09:15:08;96479.44;;;18.65;93.65
75013;BME280;63567;49.956;20.130;2023-09-19T09:17:36;96470.06;;;18.62;93.94
75013;BME280;63567;49.956;20.130;2023-09-19T09:20:02;96471.16;;;18.61;93.99
75013;BME280;63567;49.956;20.130;2023-09-19T09:22:30;96483.41;;;18.62;94.16
75013;BME280;63567;49.956;20.130;2023-09-19T09:24:57;96485.03;;;18.63;94.29
75013;BME280;63567;49.956;20.130;2023-09-19T09:27:30;96485.59;;;18.65;93.92
75013;BME280;63567;49.956;20.130;2023-09-19T09:29:56;96496.00;;;18.67;93.81
75013;BME280;63567;49.956;20.130;2023-09-19T09:32:29;96497.06;;;18.66;94.07
75013;BME280;63567;49.956;20.130;2023-09-19T09:34:59;96498.66;;;18.67;94.01
75013;BME280;63567;49.956;20.130;2023-09-19T09:37:26;96506.94;;;18.65;94.15
75013;BME280;63567;49.956;20.130;2023-09-19T09:39:56;96509.06;;;18.63;94.15
75013;BME280;63567;49.956;20.130;2023-09-19T09:42:36;96514.66;;;18.67;94.00
75013;BME280;63567;49.956;20.130;2023-09-19T09:45:21;96522.94;;;18.65;94.12
75013;BME280;63567;49.956;20.130;2023-09-19T09:47:58;96520.53;;;18.64;94.09
75013;BME280;63567;49.956;20.130;2023-09-19T09:52:55;96530.44;;;18.68;93.97
75013;BME280;63567;49.956;20.130;2023-09-19T09:55:28;96550.66;;;18.64;94.24
75013;BME280;63567;49.956;20.130;2023-09-19T09:58:16;96540.78;;;18.65;94.08
75013;BME280;63567;49.956;20.130;2023-09-19T10:00:52;96551.47;;;18.65;94.19
75013;BME280;63567;49.956;20.130;2023-09-19T10:03:31;96562.13;;;18.65;94.31
75013;BME280;63567;49.956;20.130;2023-09-19T10:05:57;96561.91;;;18.66;94.20
75013;BME280;63567;49.956;20.130;2023-09-19T10:08:23;96571.53;;;18.67;94.29
75013;BME280;63567;49.956;20.130;2023-09-19T10:10:48;96564.31;;;18.68;94.03
75013;BME280;63567;49.956;20.130;2023-09-19T10:13:29;96576.59;;;18.69;93.87
75013;BME280;63567;49.956;20.130;2023-09-19T10:15:56;96568.88;;;18.67;93.60
75013;BME280;63567;49.956;20.130;2023-09-19T10:18:25;96564.81;;;18.65;93.56
75013;BME280;63567;49.956;20.130;2023-09-19T10:20:51;96570.16;;;18.65;93.76
75013;BME280;63567;49.956;20.130;2023-09-19T10:23:18;96571.78;;;18.66;93.77
75013;BME280;63567;49.956;20.130;2023-09-19T10:25:49;96577.34;;;18.64;93.70
75013;BME280;63567;49.956;20.130;2023-09-19T10:28:17;96584.31;;;18.65;93.78
75013;BME280;63567;49.956;20.130;2023-09-19T10:30:47;96583.75;;;18.63;94.06
75013;BME280;63567;49.956;20.130;2023-09-19T10:33:17;96589.66;;;18.65;93.96
75013;BME280;63567;49.956;20.130;2023-09-19T10:35:47;96584.88;;;18.67;94.14
75013;BME280;63567;49.956;20.130;2023-09-19T10:38:14;96588.34;;;18.68;94.07
75013;BME280;63567;49.956;20.130;2023-09-19T10:40:42;96593.44;;;18.70;94.00
75013;BME280;63567;49.956;20.130;2023-09-19T10:43:16;96592.38;;;18.71;93.78
75013;BME280;63567;49.956;20.130;2023-09-19T10:45:47;96593.13;;;18.66;93.98
75013;BME280;63567;49.956;20.130;2023-09-19T10:48:15;96595.53;;;18.67;94.36
75013;BME280;63567;49.956;20.130;2023-09-19T10:51:06;96602.25;;;18.70;94.47
75013;BME280;63567;49.956;20.130;2023-09-19T10:53:48;96603.59;;;18.73;94.38
75013;BME280;63567;49.956;20.130;2023-09-19T10:56:17;96595.22;;;18.64;94.42
75013;BME280;63567;49.956;20.130;2023-09-19T10:58:44;96609.16;;;18.71;94.77
75013;BME280;63567;49.956;20.130;2023-09-19T11:01:11;96603.09;;;18.76;94.74
75013;BME280;63567;49.956;20.130;2023-09-19T11:03:43;96612.50;;;18.78;94.67
75013;BME280;63567;49.956;20.130;2023-09-19T11:06:14;96613.06;;;18.80;94.80
75013;BME280;63567;49.956;20.130;2023-09-19T11:08:55;96615.47;;;18.82;94.54
75013;BME280;63567;49.956;20.130;2023-09-19T11:11:53;96615.22;;;18.83;94.53
75013;BME280;63567;49.956;20.130;2023-09-19T11:30:46;96630.00;;;18.91;94.19
75013;BME280;63567;49.956;20.130;2023-09-19T11:36:04;96633.44;;;18.92;93.96
75013;BME280;63567;49.956;20.130;2023-09-19T11:49:16;96648.34;;;18.87;93.67
75013;BME280;63567;49.956;20.130;2023-09-19T11:51:45;96656.91;;;18.90;93.61
75013;BME280;63567;49.956;20.130;2023-09-19T11:54:13;96654.50;;;18.88;93.51
75013;BME280;63567;49.956;20.130;2023-09-19T11:56:49;96650.78;;;18.89;93.39
75013;BME280;63567;49.956;20.130;2023-09-19T11:59:23;96648.34;;;18.87;93.54
75013;BME280;63567;49.956;20.130;2023-09-19T12:01:53;96653.69;;;18.87;93.50
75013;BME280;63567;49.956;20.130;2023-09-19T12:04:40;96658.25;;;18.87;93.42
75013;BME280;63567;49.956;20.130;2023-09-19T12:07:11;96660.34;;;18.85;93.54
75013;BME280;63567;49.956;20.130;2023-09-19T12:10:02;96656.31;;;18.82;93.19
75013;BME280;63567;49.956;20.130;2023-09-19T12:12:28;96663.25;;;18.83;93.48
75013;BME280;63567;49.956;20.130;2023-09-19T12:14:56;96655.25;;;18.83;93.55
75013;BME280;63567;49.956;20.130;2023-09-19T12:17:24;96660.81;;;18.82;93.54
75013;BME280;63567;49.956;20.130;2023-09-19T12:20:01;96660.03;;;18.81;93.39
75013;BME280;63567;49.956;20.130;2023-09-19T12:22:42;96660.53;;;18.78;93.46
75013;BME280;63567;49.956;20.130;2023-09-19T12:25:08;96667.13;;;18.76;93.88
75013;BME280;63567;49.956;20.130;2023-09-19T12:27:47;96666.09;;;18.77;93.72
75013;BME280;63567;49.956;20.130;2023-09-19T12:30:15;96671.22;;;18.78;93.51
75013;BME280;63567;49.956;20.130;2023-09-19T12:32:42;96665.88;;;18.78;93.83
75013;BME280;63567;49.956;20.130;2023-09-19T12:35:09;96670.38;;;18.78;93.64
75013;BME280;63567;49.956;20.130;2023-09-19T12:37:37;96670.16;;;18.79;93.36
75013;BME280;63567;49.956;20.130;2023-09-19T12:40:09;96668.28;;;18.80;93.54
75013;BME280;63567;49.956;20.130;2023-09-19T12:42:48;96661.34;;;18.79;93.58
75013;BME280;63567;49.956;20.130;2023-09-19T12:45:14;96667.25;;;18.81;93.55
75013;BME280;63567;49.956;20.130;2023-09-19T12:47:40;96670.47;;;18.83;93.56
75013;BME280;63567;49.956;20.130;2023-09-19T12:50:26;96670.47;;;18.83;93.57
75013;BME280;63567;49.956;20.130;2023-09-19T12:52:55;96667.53;;;18.84;93.56
75013;BME280;63567;49.956;20.130;2023-09-19T12:55:26;96671.03;;;18.85;93.67
75013;BME280;63567;49.956;20.130;2023-09-19T12:58:13;96670.75;;;18.86;93.51
75013;BME280;63567;49.956;20.130;2023-09-19T13:00:44;96677.16;;;18.85;93.85
75013;BME280;63567;49.956;20.130;2023-09-19T13:08:20;96674.53;;;18.91;94.00
75013;BME280;63567;49.956;20.130;2023-09-19T13:11:04;96673.50;;;18.92;94.19
75013;BME280;63567;49.956;20.130;2023-09-19T13:13:51;96675.91;;;18.93;94.11
75013;BME280;63567;49.956;20.130;2023-09-19T13:16:21;96678.56;;;18.93;94.38
75013;BME280;63567;49.956;20.130;2023-09-19T13:18:54;96681.22;;;18.93;94.31
75013;BME280;63567;49.956;20.130;2023-09-19T13:21:34;96688.53;;;18.98;93.89
75013;BME280;63567;49.956;20.130;2023-09-19T13:24:21;96675.41;;;18.96;93.86
75013;BME280;63567;49.956;20.130;2023-09-19T13:26:50;96681.31;;;18.98;93.88
75013;BME280;63567;49.956;20.130;2023-09-19T13:29:16;96691.47;;;19.01;93.73
75013;BME280;63567;49.956;20.130;2023-09-19T13:31:50;96683.47;;;19.01;93.88
75013;BME280;63567;49.956;20.130;2023-09-19T13:34:19;96691.47;;;19.01;94.05
75013;BME280;63567;49.956;20.130;2023-09-19T13:36:45;96690.44;;;19.02;94.31
75013;BME280;63567;49.956;20.130;2023-09-19T13:39:12;96701.66;;;19.04;94.08
75013;BME280;63567;49.956;20.130;2023-09-19T13:41:49;96700.59;;;19.05;94.15
75013;BME280;63567;49.956;20.130;2023-09-19T13:44:14;96694.22;;;19.06;94.66
75013;BME280;63567;49.956;20.130;2023-09-19T13:46:41;96696.88;;;19.06;94.27
75013;BME280;63567;49.956;20.130;2023-09-19T13:49:10;96693.38;;;19.06;94.15
75013;BME280;63567;49.956;20.130;2023-09-19T13:51:36;96698.25;;;19.09;94.35